Portada
METAR-TAF:

METAR-TAF

Aeroports :

Puerto Francisco de Orellana, Equador

latitud: 00-27-46S, longitud: 076-59-12W, altitud: 254 m

Observació

L'informe es va fer fa 22 minuts, a les 18:00 UTC
Vent 4 kt del Est
Temperatura 24°C
Humitat 94%
Pressió 1014 hPa
Visibilitat 10 km o més
Cel ennuvolat a una alçada de 1500 ft
Cel cobert a una alçada de 10000 ft
pluja

METAR: SECO 211800Z 10004KT 9999 -RA BKN015 OVC100 24/23 Q1014 RMK A2996

Hora: 13:22 (18:22 UTC)


TAF: manca

Observacions i pronòstics meteorològics de més de 4000 aeroports (METAR i TAF).

Les estacions disponibles són els punts grocs i vermells al mapa.

Posi el ratolí al punt desitjat per veure el nom de l'estació.

Feu clic per veure les observacions i els pronòstics meteorològics.

Per canviar el mapa: feu clic els botons verds amb una creu de color negre per apropar; al botó verd amb un guió per allunyar la imatge; o en les fletxes verdes per a mapes adjacents.


METAR-TAF: